createdAt,value
2022-10-29T00:00:53.226Z,35.63
2022-10-29T00:03:21.797Z,35.55
2022-10-29T00:06:00.064Z,37.65
2022-10-29T00:08:28.156Z,36.97
2022-10-29T00:10:55.044Z,37.47
2022-10-29T00:13:21.850Z,37.20
2022-10-29T00:15:48.731Z,37.53
2022-10-29T00:18:15.547Z,35.38
2022-10-29T00:20:42.483Z,37.35
2022-10-29T00:23:09.309Z,35.63
2022-10-29T00:25:36.160Z,34.20
2022-10-29T00:28:02.931Z,34.00
2022-10-29T00:30:29.737Z,35.97
2022-10-29T00:32:56.955Z,34.63
2022-10-29T00:35:24.022Z,34.20
2022-10-29T00:37:51.149Z,36.05
2022-10-29T00:40:18.920Z,36.38
2022-10-29T00:42:45.715Z,34.85
2022-10-29T00:45:20.331Z,35.63
2022-10-29T00:47:52.063Z,34.50
2022-10-29T00:50:20.466Z,35.42
2022-10-29T00:52:50.123Z,36.20
2022-10-29T00:55:19.967Z,34.50
2022-10-29T00:57:51.946Z,36.05
2022-10-29T01:00:20.991Z,36.08
2022-10-29T01:02:48.361Z,37.05
2022-10-29T01:05:23.170Z,39.53
2022-10-29T01:07:49.966Z,41.20
2022-10-29T01:10:20.313Z,38.95
2022-10-29T01:13:07.441Z,38.50
2022-10-29T01:16:01.077Z,37.88
2022-10-29T01:18:33.972Z,39.63
2022-10-29T01:21:28.076Z,39.13
2022-10-29T01:24:06.899Z,39.92
2022-10-29T01:27:05.718Z,39.20
2022-10-29T01:29:54.275Z,39.65
2022-10-29T01:32:42.455Z,40.17
2022-10-29T01:35:25.158Z,39.13
2022-10-29T01:38:14.697Z,35.20
2022-10-29T01:41:07.690Z,33.28
2022-10-29T01:43:55.814Z,35.08
2022-10-29T01:46:33.999Z,33.33
2022-10-29T01:49:07.419Z,33.00
2022-10-29T01:51:36.684Z,32.83
2022-10-29T01:54:08.711Z,32.25
2022-10-29T01:56:35.703Z,34.92
2022-10-29T01:59:14.369Z,33.55
2022-10-29T02:02:11.613Z,32.78
2022-10-29T02:04:57.560Z,33.33
2022-10-29T02:07:24.303Z,32.28
2022-10-29T02:10:00.200Z,34.03
2022-10-29T02:12:39.041Z,32.95
2022-10-29T02:15:17.977Z,34.00
2022-10-29T02:17:45.118Z,32.50
2022-10-29T02:20:14.169Z,34.08
2022-10-29T02:22:41.374Z,33.25
2022-10-29T02:25:09.433Z,32.60
2022-10-29T02:27:36.478Z,32.45
2022-10-29T02:30:04.095Z,33.22
2022-10-29T02:32:32.587Z,31.00
2022-10-29T02:35:01.052Z,31.10
2022-10-29T02:37:28.083Z,32.47
2022-10-29T02:39:54.885Z,32.72
2022-10-29T02:42:22.464Z,33.38
2022-10-29T02:44:49.258Z,34.13
2022-10-29T02:47:16.045Z,33.17
2022-10-29T02:49:42.805Z,35.00
2022-10-29T02:52:09.662Z,33.92
2022-10-29T02:54:36.486Z,33.42
2022-10-29T02:57:03.382Z,35.17
2022-10-29T02:59:30.170Z,34.80
2022-10-29T03:01:57.064Z,34.10
2022-10-29T03:04:24.049Z,31.33
2022-10-29T03:06:51.967Z,29.85
2022-10-29T03:09:18.763Z,30.05
2022-10-29T03:11:45.539Z,31.13
2022-10-29T03:14:12.367Z,30.55
2022-10-29T03:16:39.143Z,29.77
2022-10-29T03:19:05.992Z,29.15
2022-10-29T03:21:32.769Z,29.60
2022-10-29T03:23:59.764Z,30.50
2022-10-29T03:26:26.611Z,28.33
2022-10-29T03:28:53.421Z,28.88
2022-10-29T03:31:20.794Z,28.88
2022-10-29T03:33:47.615Z,30.10
2022-10-29T03:36:14.537Z,29.80
2022-10-29T03:38:41.387Z,30.55
2022-10-29T03:41:10.608Z,30.95
2022-10-29T03:43:38.737Z,29.50
2022-10-29T03:46:06.424Z,28.80
2022-10-29T03:48:34.067Z,29.60
2022-10-29T03:51:05.829Z,28.60
2022-10-29T03:53:34.123Z,30.75
2022-10-29T03:56:00.999Z,28.85
2022-10-29T03:58:28.227Z,28.83
2022-10-29T04:01:03.253Z,29.85
2022-10-29T04:03:31.534Z,30.35
2022-10-29T04:05:59.867Z,29.48
2022-10-29T04:08:26.723Z,29.93
2022-10-29T04:10:54.039Z,30.13
2022-10-29T04:13:21.045Z,28.75
2022-10-29T04:15:47.911Z,28.67
2022-10-29T04:18:14.665Z,28.45
2022-10-29T04:21:05.961Z,28.42
2022-10-29T04:29:03.555Z,30.63
2022-10-29T04:31:30.322Z,30.17
2022-10-29T04:33:57.171Z,29.45
2022-10-29T04:36:24.042Z,29.20
2022-10-29T04:38:51.042Z,28.15
2022-10-29T04:41:17.846Z,28.73
2022-10-29T04:43:44.603Z,29.83
2022-10-29T04:46:11.608Z,29.60
2022-10-29T04:48:38.623Z,28.63
2022-10-29T04:51:05.716Z,29.02
2022-10-29T04:53:32.864Z,28.92
2022-10-29T04:56:01.486Z,27.77
2022-10-29T04:58:28.981Z,27.75
2022-10-29T05:01:05.210Z,27.58
2022-10-29T05:03:33.206Z,27.45
2022-10-29T05:06:03.447Z,27.35
2022-10-29T05:08:30.308Z,28.48
2022-10-29T05:10:57.325Z,30.15
2022-10-29T05:13:24.061Z,28.52
2022-10-29T05:15:53.459Z,28.52
2022-10-29T05:18:21.096Z,27.70
2022-10-29T05:20:47.925Z,29.90
2022-10-29T05:23:15.255Z,29.67
2022-10-29T05:25:42.248Z,27.48
2022-10-29T05:28:14.416Z,25.92
2022-10-29T05:30:41.845Z,26.33
2022-10-29T05:33:09.480Z,27.05
2022-10-29T05:35:36.542Z,26.88
2022-10-29T05:38:04.093Z,24.92
2022-10-29T05:40:31.139Z,27.83
2022-10-29T05:42:58.480Z,27.15
2022-10-29T05:45:25.645Z,26.67
2022-10-29T05:48:00.362Z,26.30
2022-10-29T05:50:28.350Z,26.83
2022-10-29T05:52:59.672Z,25.42
2022-10-29T05:55:27.642Z,24.67
2022-10-29T05:57:58.759Z,24.40
2022-10-29T06:00:27.300Z,26.52
2022-10-29T06:02:54.405Z,26.00
2022-10-29T06:05:22.196Z,28.05
2022-10-29T06:07:59.714Z,29.38
2022-10-29T06:10:29.163Z,29.85
2022-10-29T06:12:56.105Z,27.90
2022-10-29T06:15:23.272Z,26.67
2022-10-29T06:17:50.394Z,26.30
2022-10-29T06:20:21.205Z,27.58
2022-10-29T06:22:48.395Z,27.30
2022-10-29T06:25:15.279Z,26.40
2022-10-29T06:27:42.030Z,26.88
2022-10-29T06:30:09.389Z,27.30
2022-10-29T06:32:36.243Z,26.00
2022-10-29T06:35:03.030Z,28.23
2022-10-29T06:37:33.210Z,27.50
2022-10-29T06:39:59.994Z,25.75
2022-10-29T06:42:26.766Z,25.63
2022-10-29T06:44:53.540Z,24.33
2022-10-29T06:47:20.287Z,24.88
2022-10-29T06:49:47.069Z,25.27
2022-10-29T06:52:13.912Z,23.95
2022-10-29T06:54:40.641Z,24.75
2022-10-29T06:57:07.398Z,24.88
2022-10-29T06:59:34.130Z,25.20
2022-10-29T07:02:01.061Z,23.67
2022-10-29T07:04:27.923Z,25.38
2022-10-29T07:06:54.727Z,25.95
2022-10-29T07:09:21.496Z,24.48
2022-10-29T07:11:48.326Z,25.73
2022-10-29T07:14:15.078Z,25.58
2022-10-29T07:16:41.906Z,25.55
2022-10-29T07:19:08.751Z,24.85
2022-10-29T07:21:35.508Z,23.40
2022-10-29T07:24:02.369Z,24.42
2022-10-29T07:26:29.153Z,24.00
2022-10-29T07:28:59.191Z,24.88
2022-10-29T07:31:25.945Z,25.55
2022-10-29T07:33:52.864Z,25.55
2022-10-29T07:36:19.735Z,26.25
2022-10-29T07:38:47.169Z,24.73
2022-10-29T07:41:14.120Z,25.75
2022-10-29T07:43:41.388Z,25.15
2022-10-29T07:46:08.190Z,25.83
2022-10-29T07:48:34.936Z,25.10
2022-10-29T07:51:02.298Z,25.63
2022-10-29T07:53:31.380Z,26.40
2022-10-29T07:56:00.557Z,24.88
2022-10-29T07:58:27.449Z,25.63
2022-10-29T08:00:54.414Z,25.20
2022-10-29T08:03:21.734Z,25.38
2022-10-29T08:05:55.392Z,25.60
2022-10-29T08:08:23.912Z,26.30
2022-10-29T08:10:50.697Z,28.02
2022-10-29T08:13:17.518Z,26.85
2022-10-29T08:15:46.860Z,27.65
2022-10-29T08:18:18.149Z,27.73
2022-10-29T08:20:45.887Z,28.60
2022-10-29T08:23:15.961Z,26.95
2022-10-29T08:25:43.145Z,28.55
2022-10-29T08:28:12.625Z,28.38
2022-10-29T08:30:40.325Z,28.20
2022-10-29T08:33:07.307Z,28.40
2022-10-29T08:35:34.234Z,29.02
2022-10-29T08:38:01.172Z,28.58
2022-10-29T08:40:43.540Z,28.23
2022-10-29T08:43:22.192Z,31.75
2022-10-29T08:45:51.998Z,29.10
2022-10-29T08:48:24.637Z,29.63
2022-10-29T08:50:58.597Z,30.40
2022-10-29T08:56:55.004Z,31.33
2022-10-29T08:59:24.285Z,32.20
2022-10-29T09:01:54.876Z,31.50
2022-10-29T09:04:36.280Z,33.83
2022-10-29T09:07:24.330Z,31.25
2022-10-29T09:10:04.310Z,33.15
2022-10-29T09:12:52.223Z,31.67
2022-10-29T09:15:38.685Z,32.45
2022-10-29T09:18:24.202Z,32.58
2022-10-29T09:21:28.877Z,33.72
2022-10-29T09:24:12.492Z,33.95
2022-10-29T09:26:57.494Z,32.75
2022-10-29T09:29:47.270Z,34.95
2022-10-29T09:32:18.138Z,34.42
2022-10-29T09:34:50.756Z,36.10
2022-10-29T09:37:28.310Z,37.15
2022-10-29T09:39:57.182Z,36.05
2022-10-29T09:42:35.604Z,35.67
2022-10-29T09:45:05.874Z,38.50
2022-10-29T09:47:50.543Z,36.70
2022-10-29T09:50:22.282Z,36.78
2022-10-29T09:52:49.664Z,35.63
2022-10-29T09:55:28.026Z,37.30
2022-10-29T09:57:57.071Z,36.75
2022-10-29T10:00:27.826Z,37.78
2022-10-29T10:03:21.964Z,39.47
2022-10-29T10:06:04.209Z,40.85
2022-10-29T10:08:34.840Z,38.45
2022-10-29T10:11:07.361Z,40.67
2022-10-29T10:13:36.577Z,39.90
2022-10-29T10:16:06.093Z,41.13
2022-10-29T10:18:33.104Z,41.20
2022-10-29T10:21:01.984Z,41.03
2022-10-29T10:23:42.846Z,41.05
2022-10-29T10:26:44.891Z,41.15
2022-10-29T10:29:18.840Z,41.08
2022-10-29T10:31:51.139Z,38.42
2022-10-29T10:34:22.242Z,41.67
2022-10-29T10:36:54.814Z,40.65
2022-10-29T10:39:28.186Z,41.72
2022-10-29T10:41:57.319Z,40.15
2022-10-29T10:44:24.536Z,39.92
2022-10-29T10:46:54.540Z,39.45
2022-10-29T10:49:31.227Z,38.53
2022-10-29T10:52:01.658Z,39.28
2022-10-29T10:54:41.880Z,40.13
2022-10-29T10:57:11.537Z,38.65
2022-10-29T10:59:56.380Z,40.03
2022-10-29T11:03:14.356Z,39.22
2022-10-29T11:06:10.264Z,38.42
2022-10-29T11:08:45.766Z,38.28
2022-10-29T11:11:21.706Z,36.97
2022-10-29T11:13:50.415Z,36.92
2022-10-29T11:16:46.899Z,36.80
2022-10-29T11:19:26.696Z,35.22
2022-10-29T11:22:02.557Z,34.83
2022-10-29T11:24:44.460Z,34.38
2022-10-29T11:27:24.075Z,32.33
2022-10-29T11:30:05.383Z,31.67
2022-10-29T11:32:41.314Z,29.75
2022-10-29T11:35:20.358Z,31.08
2022-10-29T11:38:00.048Z,29.73
2022-10-29T11:40:50.866Z,29.00
2022-10-29T11:43:19.800Z,28.45
2022-10-29T11:46:08.927Z,28.10
2022-10-29T11:48:56.373Z,28.10
2022-10-29T11:51:33.555Z,27.40
2022-10-29T11:54:22.207Z,29.27
2022-10-29T11:57:01.498Z,27.27
2022-10-29T12:00:00.592Z,29.10
2022-10-29T12:03:00.418Z,30.35
2022-10-29T12:05:41.387Z,29.73
2022-10-29T12:08:14.054Z,30.30
2022-10-29T12:11:05.544Z,28.40
2022-10-29T12:13:35.254Z,29.27
2022-10-29T12:16:07.868Z,28.55
2022-10-29T12:18:57.957Z,29.55
2022-10-29T12:22:09.040Z,29.30
2022-10-29T12:25:05.264Z,32.40
2022-10-29T12:27:44.936Z,33.20
2022-10-29T12:30:16.102Z,33.10
2022-10-29T12:33:25.233Z,34.50
2022-10-29T12:36:19.628Z,34.25
2022-10-29T12:38:54.646Z,36.22
2022-10-29T12:41:25.576Z,35.55
2022-10-29T12:44:01.408Z,32.35
2022-10-29T12:46:38.118Z,31.75
2022-10-29T12:49:21.158Z,33.03
2022-10-29T12:52:02.646Z,34.00
2022-10-29T12:54:51.438Z,32.60
2022-10-29T12:57:18.147Z,32.97
2022-10-29T12:59:45.549Z,33.33
2022-10-29T13:02:21.455Z,32.80
2022-10-29T13:05:06.985Z,30.15
2022-10-29T13:07:34.724Z,29.70
2022-10-29T13:10:32.290Z,25.85
2022-10-29T13:12:59.114Z,22.15
2022-10-29T13:15:31.812Z,20.17
2022-10-29T13:18:14.487Z,20.20
2022-10-29T13:20:50.607Z,18.50
2022-10-29T13:23:23.422Z,21.85
2022-10-29T13:25:55.137Z,25.17
2022-10-29T13:28:21.937Z,25.70
2022-10-29T13:31:13.144Z,25.38
2022-10-29T13:33:39.879Z,26.00
2022-10-29T13:36:15.666Z,24.60
2022-10-29T13:39:07.316Z,22.00
2022-10-29T13:41:42.353Z,20.38
2022-10-29T13:44:14.371Z,20.20
2022-10-29T13:46:47.394Z,19.58
2022-10-29T13:49:22.202Z,20.55
2022-10-29T13:51:54.604Z,20.85
2022-10-29T13:54:44.101Z,21.05
2022-10-29T13:57:42.503Z,21.65
2022-10-29T14:00:12.305Z,22.83
2022-10-29T14:02:42.211Z,22.27
2022-10-29T14:05:15.212Z,23.73
2022-10-29T14:08:14.123Z,23.05
2022-10-29T14:10:40.847Z,23.10
2022-10-29T14:13:13.737Z,24.65
2022-10-29T14:16:05.104Z,23.70
2022-10-29T14:18:34.096Z,23.83
2022-10-29T14:21:02.597Z,25.10
2022-10-29T14:23:31.749Z,24.50
2022-10-29T14:26:00.564Z,25.70
2022-10-29T14:28:31.926Z,24.00
2022-10-29T14:31:17.339Z,25.67
2022-10-29T14:33:46.106Z,24.17
2022-10-29T14:36:39.026Z,24.30
2022-10-29T14:39:16.897Z,23.50
2022-10-29T14:41:45.696Z,25.25
2022-10-29T14:44:19.685Z,24.42
2022-10-29T14:47:00.957Z,25.38
2022-10-29T14:49:28.840Z,25.65
2022-10-29T14:52:00.875Z,24.23
2022-10-29T14:54:34.302Z,25.20
2022-10-29T14:57:06.458Z,27.30
2022-10-29T14:59:35.631Z,28.10
2022-10-29T15:02:36.230Z,28.50
2022-10-29T15:05:01.854Z,27.42
2022-10-29T15:07:35.425Z,27.65
2022-10-29T15:10:08.067Z,27.95
2022-10-29T15:12:37.832Z,29.35
2022-10-29T15:15:18.300Z,28.65
2022-10-29T15:18:06.430Z,29.35
2022-10-29T15:20:42.022Z,29.23
2022-10-29T15:23:25.066Z,29.17
2022-10-29T15:25:58.763Z,28.33
2022-10-29T15:28:28.824Z,29.73
2022-10-29T15:30:56.035Z,28.98
2022-10-29T15:33:28.011Z,29.08
2022-10-29T15:36:01.935Z,29.65
2022-10-29T15:38:28.769Z,29.13
2022-10-29T15:41:29.919Z,28.77
2022-10-29T15:43:58.688Z,29.23
2022-10-29T15:46:28.802Z,27.88
2022-10-29T15:48:55.911Z,29.48
2022-10-29T15:51:28.379Z,30.33
2022-10-29T15:53:56.307Z,28.25
2022-10-29T15:56:24.317Z,30.92
2022-10-29T15:58:52.520Z,30.08
2022-10-29T16:01:19.426Z,31.35
2022-10-29T16:03:46.334Z,32.95
2022-10-29T16:06:15.836Z,30.23
2022-10-29T16:08:47.702Z,33.60
2022-10-29T16:11:16.622Z,35.65
2022-10-29T16:13:43.421Z,37.15
2022-10-29T16:16:16.001Z,37.25
2022-10-29T16:18:44.012Z,39.90
2022-10-29T16:21:14.725Z,42.28
2022-10-29T16:23:41.688Z,45.35
2022-10-29T16:26:16.857Z,43.40
2022-10-29T16:28:43.780Z,45.38
2022-10-29T16:31:23.293Z,43.83
2022-10-29T16:33:52.783Z,43.20
2022-10-29T16:36:20.141Z,42.28
2022-10-29T16:38:46.897Z,43.85
2022-10-29T16:41:15.283Z,45.53
2022-10-29T16:43:42.591Z,45.28
2022-10-29T16:46:10.136Z,44.50
2022-10-29T16:48:37.039Z,44.90
2022-10-29T16:51:04.587Z,45.92
2022-10-29T16:53:31.480Z,47.45
2022-10-29T16:55:58.414Z,47.97
2022-10-29T16:58:25.234Z,46.78
2022-10-29T17:01:01.887Z,49.75
2022-10-29T17:03:28.851Z,47.15
2022-10-29T17:05:55.698Z,44.97
2022-10-29T17:08:22.650Z,48.78
2022-10-29T17:10:49.523Z,48.63
2022-10-29T17:13:16.327Z,46.85
2022-10-29T17:15:43.139Z,45.95
2022-10-29T17:18:10.083Z,46.97
2022-10-29T17:20:37.047Z,46.58
2022-10-29T17:23:03.897Z,45.80
2022-10-29T17:25:30.799Z,47.30
2022-10-29T17:27:58.036Z,46.78
2022-10-29T17:30:25.191Z,46.90
2022-10-29T17:32:52.063Z,45.17
2022-10-29T17:35:18.866Z,45.35
2022-10-29T17:37:45.734Z,46.10
2022-10-29T17:40:13.199Z,46.70
2022-10-29T17:42:40.086Z,46.58
2022-10-29T17:45:07.641Z,48.10
2022-10-29T17:47:34.509Z,46.97
2022-10-29T17:50:01.370Z,42.55
2022-10-29T17:52:28.192Z,44.28
2022-10-29T17:54:55.046Z,46.63
2022-10-29T17:57:21.844Z,46.65
2022-10-29T17:59:48.707Z,47.28
2022-10-29T18:02:15.660Z,47.78
2022-10-29T18:04:42.620Z,45.70
2022-10-29T18:07:09.420Z,45.72
2022-10-29T18:09:36.316Z,46.03
2022-10-29T18:12:03.303Z,45.35
2022-10-29T18:14:30.122Z,44.65
2022-10-29T18:16:57.015Z,45.92
2022-10-29T18:19:23.888Z,43.85
2022-10-29T18:21:50.732Z,45.58
2022-10-29T18:24:19.426Z,44.83
2022-10-29T18:26:50.235Z,46.25
2022-10-29T18:29:17.357Z,46.08
2022-10-29T18:31:47.070Z,44.08
2022-10-29T18:34:15.321Z,45.80
2022-10-29T18:36:43.225Z,46.20
2022-10-29T18:39:10.245Z,44.75
2022-10-29T18:41:37.067Z,44.47
2022-10-29T18:44:04.310Z,44.17
2022-10-29T18:46:31.441Z,40.78
2022-10-29T18:49:00.160Z,42.78
2022-10-29T18:51:29.553Z,42.22
2022-10-29T18:54:00.685Z,43.90
2022-10-29T18:56:29.406Z,43.92
2022-10-29T18:58:57.623Z,42.85
2022-10-29T19:01:27.517Z,42.42
2022-10-29T19:03:56.884Z,42.63
2022-10-29T19:06:25.728Z,40.47
2022-10-29T19:08:52.912Z,43.63
2022-10-29T19:11:22.231Z,41.08
2022-10-29T19:14:00.386Z,40.55
2022-10-29T19:16:28.195Z,40.22
2022-10-29T19:19:00.591Z,41.72
2022-10-29T19:21:27.750Z,42.28
2022-10-29T19:23:59.756Z,41.90
2022-10-29T19:26:28.653Z,39.10
2022-10-29T19:28:55.972Z,41.20
2022-10-29T19:31:26.610Z,42.15
2022-10-29T19:33:59.083Z,41.67
2022-10-29T19:36:27.255Z,42.92
2022-10-29T19:38:54.539Z,44.42
2022-10-29T19:41:21.438Z,43.17
2022-10-29T19:43:48.304Z,43.35
2022-10-29T19:46:17.643Z,42.78
2022-10-29T19:48:50.359Z,44.72
2022-10-29T19:51:17.336Z,44.05
2022-10-29T19:53:44.172Z,41.53
2022-10-29T19:56:13.199Z,43.17
2022-10-29T19:58:40.165Z,45.28
2022-10-29T20:01:12.268Z,44.22
2022-10-29T20:03:39.195Z,43.88
2022-10-29T20:06:09.076Z,44.85
2022-10-29T20:08:39.217Z,45.22
2022-10-29T20:11:09.389Z,44.83
2022-10-29T20:13:36.849Z,45.05
2022-10-29T20:16:11.816Z,43.47
2022-10-29T20:18:38.604Z,43.38
2022-10-29T20:23:38.033Z,43.70
2022-10-29T20:26:05.512Z,43.70
2022-10-29T20:28:32.372Z,45.15
2022-10-29T20:31:38.544Z,43.10
2022-10-29T20:34:09.438Z,44.70
2022-10-29T20:36:36.357Z,44.97
2022-10-29T20:39:03.555Z,43.65
2022-10-29T20:41:30.502Z,46.40
2022-10-29T20:43:59.746Z,46.15
2022-10-29T20:46:27.367Z,44.70
2022-10-29T20:48:54.508Z,44.90
2022-10-29T20:51:22.848Z,43.92
2022-10-29T20:53:50.378Z,44.03
2022-10-29T20:56:18.922Z,43.53
2022-10-29T20:58:45.846Z,46.05
2022-10-29T21:01:15.643Z,45.40
2022-10-29T21:03:43.591Z,47.55
2022-10-29T21:06:16.924Z,48.33
2022-10-29T21:08:48.663Z,46.60
2022-10-29T21:11:17.498Z,46.35
2022-10-29T21:13:44.820Z,48.33
2022-10-29T21:16:22.580Z,46.92
2022-10-29T21:18:52.400Z,49.63
2022-10-29T21:21:19.724Z,46.42
2022-10-29T21:23:46.589Z,48.15
2022-10-29T21:26:16.119Z,49.03
2022-10-29T21:28:43.404Z,48.08
2022-10-29T21:31:10.325Z,48.55
2022-10-29T21:33:37.771Z,47.90
2022-10-29T21:36:05.702Z,50.70
2022-10-29T21:38:33.562Z,48.67
2022-10-29T21:41:03.364Z,50.03
2022-10-29T21:43:30.570Z,48.97
2022-10-29T21:45:57.914Z,47.33
2022-10-29T21:48:28.846Z,49.13
2022-10-29T21:51:12.437Z,45.92
2022-10-29T21:53:39.442Z,46.10
2022-10-29T21:56:08.565Z,47.17
2022-10-29T21:58:35.427Z,45.03
2022-10-29T22:01:08.260Z,44.17
2022-10-29T22:03:38.158Z,44.67
2022-10-29T22:06:30.623Z,44.45
2022-10-29T22:08:59.284Z,42.88
2022-10-29T22:11:28.248Z,43.70
2022-10-29T22:13:55.351Z,43.40
2022-10-29T22:16:22.668Z,41.30
2022-10-29T22:18:50.034Z,44.05
2022-10-29T22:21:23.309Z,41.97
2022-10-29T22:23:52.524Z,40.05
2022-10-29T22:26:21.506Z,39.85
2022-10-29T22:28:48.528Z,39.65
2022-10-29T22:31:16.961Z,39.97
2022-10-29T22:33:44.943Z,41.72
2022-10-29T22:36:17.424Z,40.20
2022-10-29T22:38:44.729Z,41.60
2022-10-29T22:41:16.567Z,38.45
2022-10-29T22:43:44.770Z,39.63
2022-10-29T22:46:18.896Z,38.70
2022-10-29T22:48:46.012Z,36.17
2022-10-29T22:51:14.608Z,35.00
2022-10-29T22:53:41.941Z,36.80
2022-10-29T22:56:14.187Z,34.80
2022-10-29T22:58:41.346Z,34.65
2022-10-29T23:01:14.830Z,34.97
2022-10-29T23:03:42.218Z,33.85
2022-10-29T23:06:11.528Z,33.25
2022-10-29T23:08:38.667Z,35.58
2022-10-29T23:11:21.817Z,37.53
2022-10-29T23:13:50.689Z,35.42
2022-10-29T23:16:17.763Z,34.05
2022-10-29T23:18:51.673Z,35.47
2022-10-29T23:21:19.400Z,37.72
2022-10-29T23:23:46.809Z,36.67
2022-10-29T23:26:15.151Z,37.13
2022-10-29T23:28:45.741Z,38.35
2022-10-29T23:31:15.396Z,37.88
2022-10-29T23:33:46.648Z,39.13
2022-10-29T23:36:14.749Z,39.10
2022-10-29T23:38:42.093Z,37.60
2022-10-29T23:41:09.004Z,36.75
2022-10-29T23:43:35.860Z,36.97
2022-10-29T23:46:03.117Z,36.78
2022-10-29T23:48:30.020Z,36.40
2022-10-29T23:50:57.593Z,37.15
2022-10-29T23:53:24.783Z,34.38
2022-10-29T23:55:51.884Z,35.17
2022-10-29T23:58:21.273Z,35.22
